createdAt,value
2023-01-07T00:00:26.312Z,100736.53
2023-01-07T00:02:52.819Z,100745.72
2023-01-07T00:05:19.661Z,100754.84
2023-01-07T00:07:46.021Z,100756.44
2023-01-07T00:10:13.268Z,100756.81
2023-01-07T00:12:39.643Z,100757.22
2023-01-07T00:15:06.044Z,100761.56
2023-01-07T00:17:32.482Z,100761.56
2023-01-07T00:19:58.838Z,100773.53
2023-01-07T00:22:25.255Z,100772.69
2023-01-07T00:24:51.667Z,100778.66
2023-01-07T00:27:18.060Z,100779.06
2023-01-07T00:29:44.435Z,100785.03
2023-01-07T00:32:10.825Z,100777.09
2023-01-07T00:34:37.186Z,100783.44
2023-01-07T00:37:03.635Z,100792.59
2023-01-07T00:42:13.899Z,100803.72
2023-01-07T00:44:43.338Z,100806.50
2023-01-07T00:47:10.565Z,100796.16
2023-01-07T00:49:36.962Z,100780.25
2023-01-07T00:52:03.338Z,100791.78
2023-01-07T00:57:23.633Z,100782.25
2023-01-07T00:59:50.096Z,100794.94
2023-01-07T01:02:16.488Z,100789.38
2023-01-07T01:04:42.856Z,100795.38
2023-01-07T01:07:10.170Z,100812.47
2023-01-07T01:12:20.376Z,100818.81
2023-01-07T01:14:47.621Z,100833.50
2023-01-07T01:17:14.861Z,100821.19
2023-01-07T01:19:41.231Z,100821.19
2023-01-07T01:22:07.613Z,100812.47
2023-01-07T01:27:27.935Z,100816.81
2023-01-07T01:29:54.344Z,100814.84
2023-01-07T01:32:20.733Z,100818.41
2023-01-07T01:34:47.096Z,100811.63
2023-01-07T01:37:14.335Z,100814.41
2023-01-07T01:42:24.481Z,100817.19
2023-01-07T01:44:50.908Z,100831.53
2023-01-07T01:47:17.295Z,100827.94
2023-01-07T01:49:43.711Z,100835.91
2023-01-07T01:52:10.099Z,100837.50
2023-01-07T01:57:30.300Z,100839.50
2023-01-07T01:59:57.536Z,100837.09
2023-01-07T02:02:23.959Z,100838.66
2023-01-07T02:04:50.383Z,100831.16
2023-01-07T02:07:16.778Z,100831.94
2023-01-07T02:12:37.241Z,100822.81
2023-01-07T02:15:03.659Z,100826.38
2023-01-07T02:17:30.057Z,100813.25
2023-01-07T02:19:56.417Z,100814.03
2023-01-07T02:22:22.789Z,100810.47
2023-01-07T02:27:33.871Z,100819.19
2023-01-07T02:30:00.278Z,100816.03
2023-01-07T02:32:26.686Z,100817.25
2023-01-07T02:34:53.050Z,100810.06
2023-01-07T02:37:20.340Z,100809.28
2023-01-07T02:39:46.712Z,100817.63
2023-01-07T02:42:13.443Z,100807.28
2023-01-07T02:44:39.812Z,100805.69
2023-01-07T02:47:06.194Z,100814.47
2023-01-07T02:49:32.571Z,100808.06
2023-01-07T02:51:59.803Z,100812.47
2023-01-07T02:54:26.186Z,100814.03
2023-01-07T02:56:52.596Z,100820.81
2023-01-07T02:59:18.960Z,100819.59
2023-01-07T03:01:45.441Z,100817.63
2023-01-07T03:04:14.825Z,100810.06
2023-01-07T03:06:41.253Z,100810.47
2023-01-07T03:09:07.610Z,100815.63
2023-01-07T03:11:34.039Z,100825.59
2023-01-07T03:14:00.421Z,100817.25
2023-01-07T03:16:26.946Z,100809.28
2023-01-07T03:18:54.238Z,100815.25
2023-01-07T03:21:21.494Z,100808.47
2023-01-07T03:23:48.757Z,100812.47
2023-01-07T03:26:15.171Z,100814.47
2023-01-07T03:28:42.424Z,100808.09
2023-01-07T03:31:09.662Z,100810.06
2023-01-07T03:33:36.927Z,100817.63
2023-01-07T03:36:03.319Z,100815.63
2023-01-07T03:38:29.697Z,100816.81
2023-01-07T03:40:56.352Z,100812.47
2023-01-07T03:43:23.603Z,100820.41
2023-01-07T03:45:50.018Z,100806.13
2023-01-07T03:48:16.444Z,100813.63
2023-01-07T03:50:42.777Z,100810.06
2023-01-07T03:53:09.286Z,100806.50
2023-01-07T03:55:35.654Z,100811.25
2023-01-07T04:00:46.201Z,100815.25
2023-01-07T04:03:12.569Z,100812.06
2023-01-07T04:05:38.928Z,100815.63
2023-01-07T04:08:05.294Z,100818.81
2023-01-07T04:10:31.767Z,100821.19
2023-01-07T04:15:42.265Z,100817.63
2023-01-07T04:18:08.649Z,100822.38
2023-01-07T04:20:35.043Z,100825.59
2023-01-07T04:23:01.438Z,100814.03
2023-01-07T04:25:28.666Z,100819.19
2023-01-07T04:30:48.798Z,100816.44
2023-01-07T04:33:16.128Z,100829.56
2023-01-07T04:35:42.500Z,100835.50
2023-01-07T04:38:08.931Z,100826.38
2023-01-07T04:40:35.312Z,100830.34
2023-01-07T04:45:46.532Z,100845.00
2023-01-07T04:48:12.925Z,100837.88
2023-01-07T04:50:40.215Z,100835.88
2023-01-07T04:53:06.687Z,100825.53
2023-01-07T04:55:33.110Z,100825.53
2023-01-07T05:00:56.674Z,100833.50
2023-01-07T05:03:23.145Z,100837.09
2023-01-07T05:05:52.288Z,100849.00
2023-01-07T05:08:18.839Z,100854.97
2023-01-07T05:10:47.157Z,100851.38
2023-01-07T05:16:00.167Z,100862.50
2023-01-07T05:18:26.660Z,100859.72
2023-01-07T05:20:53.175Z,100856.94
2023-01-07T05:23:20.554Z,100860.53
2023-01-07T05:25:48.031Z,100864.09
2023-01-07T05:30:58.813Z,100877.22
2023-01-07T05:33:25.287Z,100878.00
2023-01-07T05:35:52.701Z,100882.78
2023-01-07T05:38:20.035Z,100878.81
2023-01-07T05:40:49.445Z,100875.63
2023-01-07T05:46:11.268Z,100887.94
2023-01-07T05:48:37.745Z,100885.94
2023-01-07T05:51:04.239Z,100882.78
2023-01-07T05:53:30.751Z,100882.78
2023-01-07T05:55:58.155Z,100885.56
2023-01-07T06:01:20.332Z,100892.31
2023-01-07T06:03:48.224Z,100882.00
2023-01-07T06:06:14.670Z,100881.16
2023-01-07T06:08:43.292Z,100879.19
2023-01-07T06:11:10.006Z,100879.22
2023-01-07T06:16:22.442Z,100882.78
2023-01-07T06:18:49.712Z,100886.75
2023-01-07T06:21:17.083Z,100892.31
2023-01-07T06:23:44.485Z,100894.69
2023-01-07T06:26:10.954Z,100901.84
2023-01-07T06:28:38.295Z,100903.84
2023-01-07T06:31:04.789Z,100898.69
2023-01-07T06:33:34.765Z,100902.66
2023-01-07T06:36:02.079Z,100907.03
2023-01-07T06:38:29.465Z,100916.16
2023-01-07T06:40:56.791Z,100915.00
2023-01-07T06:43:23.289Z,100917.78
2023-01-07T06:45:51.764Z,100915.38
2023-01-07T06:48:18.203Z,100920.94
2023-01-07T06:50:45.583Z,100928.88
2023-01-07T06:53:12.239Z,100926.50
2023-01-07T06:55:38.694Z,100920.53
2023-01-07T06:58:06.115Z,100937.63
2023-01-07T07:00:32.583Z,100935.63
2023-01-07T07:03:00.004Z,100937.63
2023-01-07T07:05:27.403Z,100944.75
2023-01-07T07:07:53.962Z,100951.09
2023-01-07T07:10:20.445Z,100948.72
2023-01-07T07:12:46.953Z,100949.53
2023-01-07T07:15:14.212Z,100954.69
2023-01-07T07:17:40.683Z,100954.28
2023-01-07T07:20:07.200Z,100951.09
2023-01-07T07:22:33.640Z,100954.69
2023-01-07T07:25:00.950Z,100958.25
2023-01-07T07:27:28.222Z,100962.63
2023-01-07T07:29:54.696Z,100957.47
2023-01-07T07:32:22.050Z,100951.91
2023-01-07T07:34:49.335Z,100953.88
2023-01-07T07:37:16.773Z,100950.28
2023-01-07T07:39:44.096Z,100945.13
2023-01-07T07:42:10.584Z,100959.00
2023-01-07T07:44:37.884Z,100960.66
2023-01-07T07:49:49.195Z,100963.06
2023-01-07T07:52:15.720Z,100962.69
2023-01-07T07:54:43.072Z,100965.06
2023-01-07T07:57:09.623Z,100967.03
2023-01-07T07:59:36.082Z,100966.25
2023-01-07T08:04:56.472Z,100971.03
2023-01-07T08:07:32.174Z,100968.66
2023-01-07T08:10:00.475Z,100973.81
2023-01-07T08:12:27.056Z,100975.00
2023-01-07T08:14:53.542Z,100976.97
2023-01-07T08:20:05.772Z,100982.94
2023-01-07T08:22:33.208Z,100979.78
2023-01-07T08:24:59.844Z,100971.00
2023-01-07T08:27:26.333Z,100980.16
2023-01-07T08:29:52.836Z,100968.25
2023-01-07T08:35:15.275Z,100962.28
2023-01-07T08:37:41.770Z,100969.81
2023-01-07T08:40:08.314Z,100967.47
2023-01-07T08:42:34.913Z,100968.25
2023-01-07T08:45:01.414Z,100971.41
2023-01-07T08:50:12.970Z,100975.44
2023-01-07T08:52:39.444Z,100978.59
2023-01-07T08:55:06.998Z,100979.78
2023-01-07T08:57:33.481Z,100975.38
2023-01-07T08:59:59.967Z,100971.84
2023-01-07T09:05:22.351Z,100979.03
2023-01-07T09:07:48.838Z,100982.56
2023-01-07T09:10:15.333Z,100986.13
2023-01-07T09:12:42.686Z,100984.19
2023-01-07T09:15:10.033Z,100988.91
2023-01-07T09:20:21.552Z,100985.34
2023-01-07T09:22:48.015Z,100990.53
2023-01-07T09:25:14.583Z,100988.53
2023-01-07T09:27:41.957Z,100982.19
2023-01-07T09:30:09.355Z,100982.56
2023-01-07T09:35:30.731Z,100981.03
2023-01-07T09:37:58.172Z,100988.97
2023-01-07T09:40:25.558Z,100981.41
2023-01-07T09:42:52.051Z,100975.09
2023-01-07T09:45:18.550Z,100980.19
2023-01-07T09:50:31.092Z,100973.03
2023-01-07T09:52:58.476Z,100977.41
2023-01-07T09:55:24.953Z,100984.59
2023-01-07T09:57:51.501Z,100975.84
2023-01-07T10:00:18.028Z,100988.94
2023-01-07T10:05:28.381Z,100992.91
2023-01-07T10:08:31.503Z,100998.47
2023-01-07T10:10:44.133Z,100994.13
2023-01-07T10:13:11.452Z,100988.91
2023-01-07T10:15:37.974Z,100996.88
2023-01-07T10:20:58.697Z,100994.91
2023-01-07T10:23:27.044Z,100994.06
2023-01-07T10:25:55.378Z,100983.78
2023-01-07T10:28:21.884Z,100981.38
2023-01-07T10:30:48.369Z,100975.81
2023-01-07T10:35:59.551Z,100968.25
2023-01-07T10:38:27.970Z,100965.06
2023-01-07T10:40:55.280Z,100957.91
2023-01-07T10:43:22.517Z,100953.56
2023-01-07T10:45:49.966Z,100968.66
2023-01-07T10:48:16.444Z,100962.31
2023-01-07T10:50:43.929Z,100955.53
2023-01-07T10:53:10.409Z,100960.34
2023-01-07T10:55:37.828Z,100948.44
2023-01-07T10:58:05.269Z,100942.47
2023-01-07T11:00:31.767Z,100947.66
2023-01-07T11:02:58.323Z,100944.09
2023-01-07T11:05:25.849Z,100948.81
2023-01-07T11:07:53.333Z,100951.22
2023-01-07T11:10:20.643Z,100949.25
2023-01-07T11:12:48.086Z,100958.28
2023-01-07T11:15:14.543Z,100942.84
2023-01-07T11:17:41.046Z,100949.50
2023-01-07T11:20:08.443Z,100952.34
2023-01-07T11:22:34.910Z,100943.22
2023-01-07T11:25:01.364Z,100946.41
2023-01-07T11:27:27.849Z,100949.56
2023-01-07T11:29:55.220Z,100948.00
2023-01-07T11:32:22.639Z,100939.66
2023-01-07T11:34:50.037Z,100938.06
2023-01-07T11:37:17.353Z,100940.84
2023-01-07T11:39:44.817Z,100938.44
2023-01-07T11:42:12.238Z,100928.91
2023-01-07T11:44:38.787Z,100934.47
2023-01-07T11:47:06.230Z,100928.47
2023-01-07T11:49:33.660Z,100927.69
2023-01-07T11:52:00.194Z,100924.91
2023-01-07T11:54:26.641Z,100918.56
2023-01-07T11:56:54.987Z,100927.28
2023-01-07T11:59:21.813Z,100929.25
2023-01-07T12:01:48.359Z,100921.72
2023-01-07T12:04:14.816Z,100909.03
2023-01-07T12:09:25.341Z,100906.63
2023-01-07T12:11:52.742Z,100895.53
2023-01-07T12:14:20.160Z,100890.38
2023-01-07T12:16:46.714Z,100882.00
2023-01-07T12:19:13.253Z,100885.16
2023-01-07T12:24:24.928Z,100883.56
2023-01-07T12:26:51.407Z,100884.34
2023-01-07T12:29:18.881Z,100877.56
2023-01-07T12:31:45.480Z,100884.31
2023-01-07T12:34:11.988Z,100877.94
2023-01-07T12:39:32.309Z,100882.66
2023-01-07T12:41:59.780Z,100885.03
2023-01-07T12:44:26.304Z,100888.59
2023-01-07T12:46:53.735Z,100877.47
2023-01-07T12:49:40.207Z,100877.06
2023-01-07T12:55:01.605Z,100878.25
2023-01-07T12:57:28.112Z,100878.63
2023-01-07T12:59:54.582Z,100877.38
2023-01-07T13:02:21.144Z,100874.25
2023-01-07T13:04:48.624Z,100874.66
2023-01-07T13:10:11.091Z,100869.06
2023-01-07T13:12:41.168Z,100867.88
2023-01-07T13:15:09.385Z,100861.53
2023-01-07T13:17:35.938Z,100868.69
2023-01-07T13:20:04.794Z,100869.06
2023-01-07T13:25:17.434Z,100859.97
2023-01-07T13:27:44.232Z,100869.06
2023-01-07T13:30:11.651Z,100862.72
2023-01-07T13:32:39.072Z,100871.03
2023-01-07T13:35:06.506Z,100877.78
2023-01-07T13:40:18.701Z,100868.25
2023-01-07T13:42:45.276Z,100880.16
2023-01-07T13:45:11.816Z,100876.16
2023-01-07T13:47:38.313Z,100874.97
2023-01-07T13:50:05.732Z,100872.56
2023-01-07T13:55:27.130Z,100876.56
2023-01-07T13:57:53.612Z,100880.09
2023-01-07T14:00:22.229Z,100882.13
2023-01-07T14:02:48.848Z,100892.53
2023-01-07T14:05:15.553Z,100894.56
2023-01-07T14:10:36.819Z,100901.34
2023-01-07T14:13:03.309Z,100896.63
2023-01-07T14:15:30.651Z,100897.47
2023-01-07T14:17:57.115Z,100912.19
2023-01-07T14:20:24.456Z,100905.03
2023-01-07T14:25:44.931Z,100906.63
2023-01-07T14:28:11.462Z,100910.19
2023-01-07T14:30:38.798Z,100914.94
2023-01-07T14:33:05.270Z,100916.16
2023-01-07T14:35:31.728Z,100910.59
2023-01-07T14:40:43.970Z,100922.88
2023-01-07T14:43:11.245Z,100914.16
2023-01-07T14:45:37.729Z,100917.72
2023-01-07T14:48:04.198Z,100925.25
2023-01-07T14:50:31.452Z,100917.31
2023-01-07T14:55:41.889Z,100932.03
2023-01-07T14:58:08.357Z,100933.59
2023-01-07T15:00:36.687Z,100931.63
2023-01-07T15:03:05.117Z,100927.25
2023-01-07T15:05:31.609Z,100932.03
2023-01-07T15:10:52.100Z,100928.44
2023-01-07T15:13:20.592Z,100936.00
2023-01-07T15:15:49.015Z,100937.16
2023-01-07T15:18:15.525Z,100943.91
2023-01-07T15:20:43.884Z,100947.47
2023-01-07T15:25:56.620Z,100941.13
2023-01-07T15:28:23.134Z,100935.56
2023-01-07T15:30:50.438Z,100932.78
2023-01-07T15:33:17.725Z,100931.19
2023-01-07T15:35:45.067Z,100938.34
2023-01-07T15:38:12.390Z,100942.31
2023-01-07T15:40:38.850Z,100947.88
2023-01-07T15:43:06.094Z,100945.88
2023-01-07T15:45:33.468Z,100952.25
2023-01-07T15:48:01.824Z,100954.22
2023-01-07T15:50:29.201Z,100956.22
2023-01-07T15:52:56.538Z,100952.63
2023-01-07T15:55:22.992Z,100944.28
2023-01-07T15:57:50.296Z,100945.09
2023-01-07T16:00:17.639Z,100941.13
2023-01-07T16:02:44.093Z,100943.09
2023-01-07T16:05:10.650Z,100938.72
2023-01-07T16:07:38.198Z,100945.09
2023-01-07T16:10:04.655Z,100942.31
2023-01-07T16:12:31.977Z,100943.47
2023-01-07T16:14:59.372Z,100940.31
2023-01-07T16:17:26.654Z,100935.94
2023-01-07T16:19:53.178Z,100938.72
2023-01-07T16:22:20.491Z,100930.41
2023-01-07T16:24:46.931Z,100935.56
2023-01-07T16:27:13.423Z,100922.84
2023-01-07T16:29:41.777Z,100927.22
2023-01-07T16:32:08.309Z,100920.84
2023-01-07T16:34:36.631Z,100918.06
2023-01-07T16:37:03.157Z,100912.13
2023-01-07T16:39:30.536Z,100904.97
2023-01-07T16:41:57.882Z,100896.63
2023-01-07T16:44:25.174Z,100900.22
2023-01-07T16:46:54.438Z,100884.69
2023-01-07T16:49:21.798Z,100888.28
2023-01-07T16:51:48.284Z,100895.03
2023-01-07T16:54:14.746Z,100899.41
2023-01-07T16:59:26.853Z,100878.34
2023-01-07T17:01:53.404Z,100881.53
2023-01-07T17:04:21.798Z,100878.75
2023-01-07T17:06:49.151Z,100884.69
2023-01-07T17:09:15.636Z,100875.56
2023-01-07T17:14:28.063Z,100888.28
2023-01-07T17:16:54.552Z,100879.97
2023-01-07T17:19:21.044Z,100879.97
2023-01-07T17:21:48.339Z,100881.91
2023-01-07T17:24:15.654Z,100889.88
2023-01-07T17:29:27.829Z,100880.75
2023-01-07T17:31:55.142Z,100880.75
2023-01-07T17:34:25.142Z,100882.72
2023-01-07T17:36:52.460Z,100886.31
2023-01-07T17:39:19.779Z,100893.47
2023-01-07T17:44:40.267Z,100885.91
2023-01-07T17:47:06.731Z,100880.75
2023-01-07T17:49:33.194Z,100889.88
2023-01-07T17:51:59.758Z,100877.97
2023-01-07T17:54:27.143Z,100879.13
2023-01-07T17:59:48.749Z,100868.00
2023-01-07T18:02:15.361Z,100867.22
2023-01-07T18:04:41.921Z,100864.84
2023-01-07T18:07:09.216Z,100864.84
2023-01-07T18:09:35.670Z,100871.22
2023-01-07T18:14:56.955Z,100867.22
2023-01-07T18:17:23.621Z,100862.06
2023-01-07T18:19:50.090Z,100868.44
2023-01-07T18:22:16.533Z,100870.41
2023-01-07T18:24:43.932Z,100871.22
2023-01-07T18:29:55.177Z,100870.41
2023-01-07T18:32:21.668Z,100862.06
2023-01-07T18:34:49.124Z,100866.84
2023-01-07T18:37:16.524Z,100870.41
2023-01-07T18:39:43.896Z,100867.63
2023-01-07T18:45:05.443Z,100867.63
2023-01-07T18:47:32.840Z,100862.06
2023-01-07T18:50:00.260Z,100856.88
2023-01-07T18:52:27.855Z,100856.50
2023-01-07T18:54:54.334Z,100856.50
2023-01-07T19:00:05.735Z,100856.50
2023-01-07T19:02:32.256Z,100853.72
2023-01-07T19:04:58.770Z,100855.31
2023-01-07T19:07:26.120Z,100853.34
2023-01-07T19:09:53.684Z,100856.50
2023-01-07T19:15:05.065Z,100853.34
2023-01-07T19:17:32.447Z,100848.16
2023-01-07T19:19:59.003Z,100854.94
2023-01-07T19:22:25.495Z,100854.13
2023-01-07T19:24:52.891Z,100854.94
2023-01-07T19:30:13.521Z,100850.56
2023-01-07T19:32:41.885Z,100854.13
2023-01-07T19:35:08.382Z,100858.91
2023-01-07T19:37:35.809Z,100848.56
2023-01-07T19:40:03.249Z,100850.94
2023-01-07T19:45:24.852Z,100841.41
2023-01-07T19:47:52.317Z,100850.56
2023-01-07T19:50:19.742Z,100839.44
2023-01-07T19:52:47.329Z,100845.00
2023-01-07T19:55:14.644Z,100845.00
2023-01-07T20:00:25.773Z,100840.22
2023-01-07T20:02:52.267Z,100833.09
2023-01-07T20:05:18.781Z,100838.63
2023-01-07T20:07:46.200Z,100845.00
2023-01-07T20:10:12.705Z,100828.31
2023-01-07T20:12:39.197Z,100828.31
2023-01-07T20:15:05.884Z,100831.09
2023-01-07T20:17:32.400Z,100828.31
2023-01-07T20:19:58.864Z,100831.47
2023-01-07T20:22:25.330Z,100830.69
2023-01-07T20:24:51.824Z,100814.78
2023-01-07T20:27:19.272Z,100818.38
2023-01-07T20:29:45.793Z,100814.41
2023-01-07T20:32:13.237Z,100817.19
2023-01-07T20:34:39.762Z,100814.41
2023-01-07T20:37:06.292Z,100808.84
2023-01-07T20:39:32.900Z,100813.63
2023-01-07T20:41:59.398Z,100814.78
2023-01-07T20:44:26.849Z,100812.06
2023-01-07T20:46:54.272Z,100810.47
2023-01-07T20:49:21.703Z,100805.69
2023-01-07T20:51:48.196Z,100800.13
2023-01-07T20:54:15.619Z,100800.56
2023-01-07T20:56:42.108Z,100805.69
2023-01-07T20:59:08.729Z,100805.31
2023-01-07T21:01:35.363Z,100799.72
2023-01-07T21:04:03.094Z,100798.56
2023-01-07T21:06:29.655Z,100801.34
2023-01-07T21:08:57.076Z,100797.78
2023-01-07T21:11:24.542Z,100799.34
2023-01-07T21:13:51.060Z,100806.13
2023-01-07T21:19:13.856Z,100798.94
2023-01-07T21:21:40.606Z,100796.19
2023-01-07T21:24:08.283Z,100804.91
2023-01-07T21:26:34.798Z,100806.50
2023-01-07T21:29:01.291Z,100797.78
2023-01-07T21:34:22.923Z,100799.72
2023-01-07T21:36:49.510Z,100796.94
2023-01-07T21:39:15.972Z,100797.34
2023-01-07T21:41:43.387Z,100791.78
2023-01-07T21:44:10.914Z,100792.22
2023-01-07T21:49:21.421Z,100798.56
2023-01-07T21:51:48.874Z,100798.16
2023-01-07T21:54:16.288Z,100791.38
2023-01-07T21:56:42.783Z,100793.00
2023-01-07T21:59:10.160Z,100793.00
2023-01-07T22:04:31.733Z,100791.00
2023-01-07T22:06:58.266Z,100793.78
2023-01-07T22:09:24.767Z,100792.22
2023-01-07T22:11:52.177Z,100786.63
2023-01-07T22:14:19.593Z,100787.81
2023-01-07T22:19:40.936Z,100781.47
2023-01-07T22:22:08.484Z,100779.88
2023-01-07T22:24:34.970Z,100787.44
2023-01-07T22:27:02.390Z,100781.06
2023-01-07T22:29:29.782Z,100773.53
2023-01-07T22:34:41.323Z,100773.91
2023-01-07T22:37:07.832Z,100764.34
2023-01-07T22:39:34.474Z,100765.97
2023-01-07T22:42:01.774Z,100773.91
2023-01-07T22:44:29.176Z,100773.53
2023-01-07T22:49:50.277Z,100774.69
2023-01-07T22:52:16.728Z,100769.53
2023-01-07T22:54:44.129Z,100773.53
2023-01-07T22:57:11.510Z,100765.97
2023-01-07T22:59:38.840Z,100773.91
2023-01-07T23:05:01.082Z,100771.91
2023-01-07T23:07:27.593Z,100767.97
2023-01-07T23:09:54.052Z,100763.19
2023-01-07T23:12:21.412Z,100763.19
2023-01-07T23:14:47.888Z,100765.19
2023-01-07T23:20:10.111Z,100754.44
2023-01-07T23:22:36.741Z,100759.22
2023-01-07T23:25:05.236Z,100765.19
2023-01-07T23:27:32.507Z,100763.56
2023-01-07T23:29:59.829Z,100759.22
2023-01-07T23:35:10.185Z,100748.09
2023-01-07T23:37:36.634Z,100740.53
2023-01-07T23:40:03.187Z,100736.97
2023-01-07T23:42:29.646Z,100737.75
2023-01-07T23:44:56.105Z,100738.53
2023-01-07T23:50:18.446Z,100733.38
2023-01-07T23:52:45.818Z,100730.97
2023-01-07T23:55:14.129Z,100724.25
2023-01-07T23:57:40.640Z,100721.06
